createdAt,value
2023-02-27T00:00:35.658Z,86.48
2023-02-27T00:03:22.926Z,85.93
2023-02-27T00:05:50.038Z,86.30
2023-02-27T00:08:17.339Z,86.49
2023-02-27T00:10:44.414Z,86.74
2023-02-27T00:13:11.252Z,86.72
2023-02-27T00:15:40.222Z,86.69
2023-02-27T00:18:07.726Z,86.95
2023-02-27T00:20:37.482Z,86.62
2023-02-27T00:23:05.917Z,86.72
2023-02-27T00:25:34.774Z,86.66
2023-02-27T00:28:01.627Z,86.48
2023-02-27T00:30:28.566Z,86.39
2023-02-27T00:32:55.536Z,86.56
2023-02-27T00:35:22.542Z,86.56
2023-02-27T00:37:49.558Z,86.69
2023-02-27T00:40:16.918Z,86.56
2023-02-27T00:42:45.677Z,86.61
2023-02-27T00:45:12.865Z,86.51
2023-02-27T00:47:39.714Z,86.47
2023-02-27T00:50:07.271Z,86.62
2023-02-27T00:52:34.351Z,86.40
2023-02-27T00:55:01.835Z,86.78
2023-02-27T00:57:29.256Z,86.82
2023-02-27T00:59:56.295Z,87.03
2023-02-27T01:02:23.166Z,86.79
2023-02-27T01:04:50.170Z,86.80
2023-02-27T01:07:17.260Z,86.76
2023-02-27T01:09:44.247Z,86.99
2023-02-27T01:12:11.553Z,87.21
2023-02-27T01:14:39.124Z,87.17
2023-02-27T01:17:06.257Z,87.09
2023-02-27T01:19:33.100Z,87.07
2023-02-27T01:22:00.118Z,87.38
2023-02-27T01:24:27.158Z,87.43
2023-02-27T01:26:54.090Z,87.55
2023-02-27T01:29:21.050Z,87.27
2023-02-27T01:31:48.694Z,87.24
2023-02-27T01:34:16.020Z,87.15
2023-02-27T01:36:43.042Z,87.22
2023-02-27T01:39:10.074Z,87.60
2023-02-27T01:41:36.903Z,87.57
2023-02-27T01:44:06.822Z,87.49
2023-02-27T01:46:37.675Z,87.45
2023-02-27T01:49:29.194Z,87.44
2023-02-27T01:52:09.597Z,87.57
2023-02-27T01:54:40.272Z,87.64
2023-02-27T01:57:09.150Z,87.67
2023-02-27T01:59:39.842Z,87.74
2023-02-27T02:02:14.965Z,87.51
2023-02-27T02:04:42.398Z,87.43
2023-02-27T02:07:13.541Z,87.29
2023-02-27T02:09:46.378Z,87.39
2023-02-27T02:12:15.777Z,87.74
2023-02-27T02:14:43.779Z,87.72
2023-02-27T02:17:10.774Z,87.44
2023-02-27T02:20:00.652Z,87.63
2023-02-27T02:22:39.477Z,87.32
2023-02-27T02:25:46.121Z,87.27
2023-02-27T02:28:45.934Z,87.42
2023-02-27T02:31:50.971Z,87.44
2023-02-27T02:34:37.981Z,87.70
2023-02-27T02:37:26.331Z,87.74
2023-02-27T02:40:17.244Z,87.76
2023-02-27T02:43:02.522Z,87.77
2023-02-27T02:45:55.290Z,87.90
2023-02-27T02:48:35.450Z,87.96
2023-02-27T02:51:22.997Z,87.84
2023-02-27T02:54:01.573Z,88.12
2023-02-27T02:56:40.741Z,87.77
2023-02-27T02:59:17.170Z,87.81
2023-02-27T03:01:55.981Z,87.79
2023-02-27T03:04:46.128Z,87.63
2023-02-27T03:07:33.188Z,87.76
2023-02-27T03:10:09.322Z,87.67
2023-02-27T03:12:40.320Z,87.84
2023-02-27T03:15:17.693Z,87.82
2023-02-27T03:17:51.132Z,87.72
2023-02-27T03:20:25.832Z,87.74
2023-02-27T03:22:56.604Z,87.60
2023-02-27T03:25:29.190Z,87.73
2023-02-27T03:28:06.385Z,87.89
2023-02-27T03:30:33.185Z,88.01
2023-02-27T03:33:16.156Z,87.99
2023-02-27T03:35:52.742Z,88.04
2023-02-27T03:38:38.801Z,87.75
2023-02-27T03:41:28.781Z,87.92
2023-02-27T03:44:08.969Z,88.02
2023-02-27T03:46:36.910Z,87.87
2023-02-27T03:49:04.886Z,87.99
2023-02-27T03:51:33.266Z,87.74
2023-02-27T03:54:21.047Z,87.86
2023-02-27T03:56:57.238Z,87.86
2023-02-27T03:59:24.422Z,87.63
2023-02-27T04:01:53.775Z,87.74
2023-02-27T04:04:21.361Z,87.60
2023-02-27T04:07:24.693Z,87.80
2023-02-27T04:10:16.113Z,87.67
2023-02-27T04:13:10.173Z,87.76
2023-02-27T04:16:09.288Z,87.75
2023-02-27T04:19:16.278Z,87.52
2023-02-27T04:22:04.023Z,87.34
2023-02-27T04:24:41.387Z,87.69
2023-02-27T04:27:18.876Z,87.68
2023-02-27T04:30:38.226Z,87.60
2023-02-27T04:33:27.992Z,87.55
2023-02-27T04:36:16.739Z,87.62
2023-02-27T04:38:46.550Z,87.41
2023-02-27T04:41:22.848Z,87.36
2023-02-27T04:43:51.919Z,87.46
2023-02-27T04:46:24.978Z,87.43
2023-02-27T04:49:03.316Z,87.46
2023-02-27T04:51:38.442Z,87.34
2023-02-27T04:54:17.203Z,87.30
2023-02-27T04:56:49.317Z,87.38
2023-02-27T04:59:24.055Z,87.21
2023-02-27T05:01:50.993Z,87.17
2023-02-27T05:04:20.599Z,87.31
2023-02-27T05:06:49.256Z,87.04
2023-02-27T05:09:27.942Z,87.03
2023-02-27T05:12:10.465Z,87.14
2023-02-27T05:14:44.945Z,87.17
2023-02-27T05:17:19.719Z,87.00
2023-02-27T05:19:48.303Z,86.98
2023-02-27T05:22:34.210Z,87.14
2023-02-27T05:25:23.188Z,86.91
2023-02-27T05:28:04.035Z,87.04
2023-02-27T05:30:44.771Z,87.05
2023-02-27T05:33:20.148Z,87.07
2023-02-27T05:36:12.399Z,87.10
2023-02-27T05:38:45.424Z,86.97
2023-02-27T05:41:14.358Z,87.07
2023-02-27T05:43:48.953Z,87.08
2023-02-27T05:46:24.915Z,87.00
2023-02-27T05:48:59.214Z,87.06
2023-02-27T05:51:30.764Z,86.90
2023-02-27T05:54:05.977Z,86.89
2023-02-27T05:56:36.851Z,86.95
2023-02-27T05:59:11.323Z,86.99
2023-02-27T06:01:38.884Z,86.86
2023-02-27T06:04:05.881Z,86.87
2023-02-27T06:06:35.795Z,86.60
2023-02-27T06:09:03.315Z,86.66
2023-02-27T06:11:30.637Z,86.81
2023-02-27T06:13:58.363Z,86.63
2023-02-27T06:16:27.405Z,86.74
2023-02-27T06:18:55.218Z,86.62
2023-02-27T06:21:22.340Z,86.98
2023-02-27T06:23:49.529Z,86.98
2023-02-27T06:26:16.487Z,86.74
2023-02-27T06:28:43.830Z,86.92
2023-02-27T06:31:11.310Z,86.79
2023-02-27T06:33:38.415Z,86.93
2023-02-27T06:36:07.069Z,86.90
2023-02-27T06:38:34.342Z,87.22
2023-02-27T06:41:04.005Z,87.34
2023-02-27T06:43:34.214Z,87.16
2023-02-27T06:46:02.542Z,87.22
2023-02-27T06:48:31.703Z,87.16
2023-02-27T06:51:00.133Z,87.23
2023-02-27T06:53:27.510Z,86.97
2023-02-27T06:55:54.926Z,87.12
2023-02-27T06:58:24.364Z,87.24
2023-02-27T07:00:51.524Z,87.32
2023-02-27T07:03:19.210Z,87.33
2023-02-27T07:05:46.978Z,87.49
2023-02-27T07:08:19.362Z,87.32
2023-02-27T07:10:48.722Z,87.18
2023-02-27T07:13:19.427Z,87.29
2023-02-27T07:15:47.237Z,87.13
2023-02-27T07:18:18.997Z,87.18
2023-02-27T07:20:55.562Z,87.22
2023-02-27T07:23:24.530Z,87.23
2023-02-27T07:25:52.580Z,87.11
2023-02-27T07:28:20.879Z,87.33
2023-02-27T07:30:54.407Z,87.59
2023-02-27T07:33:26.803Z,87.96
2023-02-27T07:35:55.785Z,87.82
2023-02-27T07:38:24.241Z,87.56
2023-02-27T07:40:53.283Z,87.72
2023-02-27T07:43:20.816Z,87.40
2023-02-27T07:45:50.588Z,87.51
2023-02-27T07:52:04.699Z,87.48
2023-02-27T07:54:35.756Z,87.47
2023-02-27T07:57:06.143Z,87.34
2023-02-27T07:59:37.012Z,87.46
2023-02-27T08:02:08.800Z,87.42
2023-02-27T08:04:37.872Z,87.31
2023-02-27T08:07:06.652Z,87.49
2023-02-27T08:09:35.964Z,87.39
2023-02-27T08:12:05.060Z,87.37
2023-02-27T08:14:33.838Z,87.27
2023-02-27T08:17:03.729Z,87.52
2023-02-27T08:19:34.323Z,87.36
2023-02-27T08:22:09.103Z,87.21
2023-02-27T08:24:41.357Z,87.25
2023-02-27T08:27:11.837Z,86.86
2023-02-27T08:29:46.292Z,86.97
2023-02-27T08:32:15.203Z,87.17
2023-02-27T08:34:45.478Z,87.26
2023-02-27T08:37:16.399Z,87.39
2023-02-27T08:39:48.536Z,87.41
2023-02-27T08:42:18.398Z,87.46
2023-02-27T08:44:50.941Z,87.32
2023-02-27T08:47:21.591Z,87.37
2023-02-27T08:49:52.957Z,87.51
2023-02-27T08:52:25.021Z,87.57
2023-02-27T08:54:54.360Z,87.62
2023-02-27T08:57:23.151Z,87.74
2023-02-27T08:59:52.040Z,87.49
2023-02-27T09:02:27.910Z,87.31
2023-02-27T09:04:56.917Z,87.73
2023-02-27T09:07:25.603Z,87.31
2023-02-27T09:09:54.684Z,87.22
2023-02-27T09:12:23.641Z,87.70
2023-02-27T09:14:52.651Z,87.22
2023-02-27T09:17:21.400Z,87.08
2023-02-27T09:19:51.841Z,86.99
2023-02-27T09:22:23.425Z,86.97
2023-02-27T09:24:53.069Z,87.25
2023-02-27T09:27:24.621Z,87.28
2023-02-27T09:29:57.972Z,87.41
2023-02-27T09:32:27.864Z,87.31
2023-02-27T09:34:57.477Z,87.00
2023-02-27T09:37:27.030Z,87.17
2023-02-27T09:39:57.128Z,87.43
2023-02-27T09:42:42.437Z,87.51
2023-02-27T09:45:27.053Z,87.26
2023-02-27T09:48:17.986Z,87.35
2023-02-27T09:50:52.901Z,87.52
2023-02-27T09:53:39.102Z,87.66
2023-02-27T09:56:26.271Z,87.56
2023-02-27T09:59:19.096Z,87.66
2023-02-27T10:02:23.817Z,87.49
2023-02-27T10:05:22.919Z,87.11
2023-02-27T10:08:07.140Z,87.35
2023-02-27T10:10:42.691Z,86.93
2023-02-27T10:13:31.950Z,86.80
2023-02-27T10:16:08.855Z,87.04
2023-02-27T10:19:01.037Z,87.41
2023-02-27T10:21:48.088Z,87.42
2023-02-27T10:24:32.038Z,88.01
2023-02-27T10:27:06.114Z,87.92
2023-02-27T10:29:43.100Z,88.15
